Time;durP1;ratioP1;P1;durP2;ratioP2;P2;SDS_P1;SDS_P2;PMS_P1;PMS_P2;Temp;Humidity;BMP_temperature;BMP_pressure;BME280_temperature;BME280_humidity;BME280_pressure;Samples;Min_cycle;Max_cycle;Signal;HPM_P1;HPM_P2
2021/05/05 00:01:53;;;;;;;3.10;1.65;;;12.20;99.90;;;;;;4971920;28;20263;-76
2021/05/05 00:04:19;;;;;;;2.10;1.77;;;12.20;99.90;;;;;;4973401;28;20098;-75
2021/05/05 00:06:45;;;;;;;1.55;1.40;;;12.10;99.90;;;;;;4974327;28;20099;-75
2021/05/05 00:09:11;;;;;;;2.72;1.90;;;12.10;99.90;;;;;;4974134;28;20145;-76
2021/05/05 00:11:37;;;;;;;1.92;1.58;;;12.10;99.90;;;;;;4966742;28;20076;-75
2021/05/05 00:14:04;;;;;;;3.97;1.50;;;12.10;99.90;;;;;;4958980;28;20467;-75
2021/05/05 00:16:30;;;;;;;1.83;1.52;;;12.10;99.90;;;;;;4971583;28;20071;-76
2021/05/05 00:18:55;;;;;;;2.67;2.00;;;12.10;99.90;;;;;;4953294;28;20080;-75
2021/05/05 00:21:21;;;;;;;5.25;1.80;;;12.00;99.90;;;;;;4953254;29;20439;-75
2021/05/05 00:23:46;;;;;;;2.35;1.75;;;12.00;99.90;;;;;;4954725;28;20083;-75
2021/05/05 00:26:12;;;;;;;3.17;1.80;;;12.10;99.90;;;;;;4959744;28;20083;-75
2021/05/05 00:28:39;;;;;;;3.60;1.70;;;12.00;99.90;;;;;;4969319;28;20075;-75
2021/05/05 00:31:04;;;;;;;4.13;2.15;;;11.90;99.90;;;;;;4962403;28;20101;-76
2021/05/05 00:33:30;;;;;;;5.20;2.05;;;11.90;99.90;;;;;;4958947;28;20091;-75
2021/05/05 00:35:55;;;;;;;2.97;1.67;;;11.90;99.90;;;;;;4970083;28;20097;-75
2021/05/05 00:38:21;;;;;;;3.45;2.20;;;11.90;99.90;;;;;;4965747;28;20071;-76
2021/05/05 00:40:47;;;;;;;2.10;1.88;;;11.90;99.90;;;;;;4970318;28;20072;-75
2021/05/05 00:43:12;;;;;;;3.83;1.60;;;11.90;99.90;;;;;;4955013;28;20536;-76
2021/05/05 00:45:38;;;;;;;2.00;1.63;;;11.80;99.90;;;;;;4955311;28;20099;-76
2021/05/05 00:48:04;;;;;;;2.35;2.03;;;11.70;99.90;;;;;;4964169;28;20083;-76
2021/05/05 00:50:30;;;;;;;2.47;1.90;;;11.80;99.90;;;;;;4957305;28;20075;-76
2021/05/05 00:52:55;;;;;;;4.28;2.08;;;11.80;99.90;;;;;;4958876;28;20082;-75
2021/05/05 00:55:21;;;;;;;3.00;1.58;;;11.80;99.90;;;;;;4969690;28;20154;-76
2021/05/05 00:57:48;;;;;;;2.20;1.77;;;11.80;99.90;;;;;;4956424;28;20115;-76
2021/05/05 01:00:17;;;;;;;2.45;1.98;;;11.80;99.90;;;;;;4956097;28;20076;-75
2021/05/05 01:02:43;;;;;;;2.20;1.65;;;11.80;99.90;;;;;;4960678;28;20088;-75
2021/05/05 01:05:09;;;;;;;1.98;1.77;;;11.80;99.90;;;;;;4969432;28;20084;-76
2021/05/05 01:07:35;;;;;;;2.85;1.60;;;11.80;99.90;;;;;;4955949;28;20091;-76
2021/05/05 01:10:03;;;;;;;2.35;1.83;;;11.80;99.90;;;;;;4962578;28;20150;-75
2021/05/05 01:12:28;;;;;;;2.17;1.95;;;11.80;99.90;;;;;;4954177;28;20079;-75
2021/05/05 01:14:54;;;;;;;2.33;1.73;;;11.90;99.90;;;;;;4969453;28;20103;-76
2021/05/05 01:17:20;;;;;;;2.13;1.88;;;11.80;99.90;;;;;;4969966;28;20137;-76
2021/05/05 01:19:45;;;;;;;1.92;1.60;;;11.80;99.90;;;;;;4954611;28;20087;-76
2021/05/05 01:22:11;;;;;;;2.22;1.55;;;11.70;99.90;;;;;;4957685;28;20567;-76
2021/05/05 01:24:37;;;;;;;2.33;2.00;;;11.70;99.90;;;;;;4966026;28;20095;-76
2021/05/05 01:27:05;;;;;;;3.15;1.70;;;11.70;99.90;;;;;;4953332;28;20075;-75
2021/05/05 01:29:31;;;;;;;1.85;1.40;;;11.60;99.90;;;;;;4971948;28;20550;-76
2021/05/05 01:31:57;;;;;;;3.70;1.98;;;11.60;99.90;;;;;;4971459;28;20087;-76
2021/05/05 01:34:23;;;;;;;4.78;1.95;;;11.50;99.90;;;;;;4953990;28;20108;-76
2021/05/05 01:36:49;;;;;;;3.65;1.90;;;11.50;99.90;;;;;;4959462;28;20087;-76
2021/05/05 01:39:17;;;;;;;1.70;1.40;;;11.50;99.90;;;;;;4963763;28;20532;-76
2021/05/05 01:41:43;;;;;;;1.75;1.65;;;11.50;99.90;;;;;;4943038;28;20072;-75
2021/05/05 01:44:09;;;;;;;4.43;1.52;;;11.50;99.90;;;;;;4965174;28;20122;-75
2021/05/05 01:46:46;;;;;;;7.50;2.13;;;11.50;99.90;;;;;;4960170;28;20134;-75
2021/05/05 01:49:17;;;;;;;2.00;1.70;;;11.50;99.90;;;;;;4963192;28;20178;-76
2021/05/05 01:51:42;;;;;;;1.45;1.35;;;11.40;99.90;;;;;;4956099;28;20083;-75
2021/05/05 01:54:08;;;;;;;3.47;1.52;;;11.40;99.90;;;;;;4962361;28;20114;-75
2021/05/05 01:56:34;;;;;;;2.90;1.90;;;11.30;99.90;;;;;;4964681;28;20078;-76
2021/05/05 01:58:59;;;;;;;2.13;1.92;;;11.20;99.90;;;;;;4954835;28;20102;-75
2021/05/05 02:01:25;;;;;;;2.60;2.17;;;11.30;99.90;;;;;;4958944;28;20479;-75
2021/05/05 02:03:50;;;;;;;2.58;1.88;;;11.30;99.90;;;;;;4964272;28;20075;-76
2021/05/05 02:06:16;;;;;;;3.65;1.98;;;11.20;99.90;;;;;;4967149;28;20606;-76
2021/05/05 02:08:42;;;;;;;2.80;2.10;;;11.30;99.90;;;;;;4962251;28;20137;-73
2021/05/05 02:11:07;;;;;;;3.03;2.33;;;11.30;99.90;;;;;;4957383;28;20141;-77
2021/05/05 02:13:33;;;;;;;3.97;2.17;;;11.30;99.90;;;;;;4939166;29;20381;-77
2021/05/05 02:15:58;;;;;;;2.50;2.00;;;11.20;99.90;;;;;;4951880;28;20103;-78
2021/05/05 02:18:24;;;;;;;2.35;2.00;;;11.30;99.90;;;;;;4960410;28;20079;-75
2021/05/05 02:20:49;;;;;;;3.60;2.40;;;11.30;99.90;;;;;;4951594;28;20075;-76
2021/05/05 02:23:15;;;;;;;2.60;2.22;;;11.40;99.90;;;;;;4957716;28;20084;-75
2021/05/05 02:25:40;;;;;;;6.32;2.40;;;11.40;99.90;;;;;;4949219;28;20091;-76
2021/05/05 02:28:06;;;;;;;3.08;2.10;;;11.40;99.90;;;;;;4958793;28;20072;-77
2021/05/05 02:30:32;;;;;;;2.67;2.10;;;11.50;99.90;;;;;;4963242;28;20107;-75
2021/05/05 02:32:57;;;;;;;2.40;1.80;;;11.50;99.90;;;;;;4960234;28;20099;-77
2021/05/05 02:35:23;;;;;;;3.50;2.22;;;11.50;99.90;;;;;;4949857;29;20213;-77
2021/05/05 02:37:49;;;;;;;2.08;1.83;;;11.50;99.90;;;;;;4967503;28;20083;-75
2021/05/05 02:40:16;;;;;;;2.47;2.20;;;11.50;99.90;;;;;;4951354;28;20090;-75
2021/05/05 02:42:41;;;;;;;3.72;2.00;;;11.50;99.90;;;;;;4956181;28;20064;-76
2021/05/05 02:45:08;;;;;;;3.38;2.17;;;11.50;99.90;;;;;;4967146;28;20578;-75
2021/05/05 02:47:34;;;;;;;2.80;2.30;;;11.50;99.90;;;;;;4971993;28;20079;-78
2021/05/05 02:49:59;;;;;;;4.30;2.63;;;11.50;99.90;;;;;;4961123;28;20081;-77
2021/05/05 02:52:25;;;;;;;2.42;2.17;;;11.50;99.90;;;;;;4947135;28;20080;-76
2021/05/05 02:54:50;;;;;;;3.55;2.97;;;11.50;99.90;;;;;;4964969;28;20157;-76
2021/05/05 02:57:16;;;;;;;5.55;2.80;;;11.40;99.90;;;;;;4957489;28;20071;-76
2021/05/05 02:59:42;;;;;;;3.08;2.40;;;11.40;99.90;;;;;;4956575;28;20079;-76
2021/05/05 03:02:08;;;;;;;2.60;2.25;;;11.50;99.90;;;;;;4971415;28;20431;-75
2021/05/05 03:04:33;;;;;;;2.50;2.30;;;11.50;99.90;;;;;;4971568;28;20163;-76
2021/05/05 03:06:59;;;;;;;2.45;2.20;;;11.50;99.90;;;;;;4953685;28;20079;-76
2021/05/05 03:09:26;;;;;;;3.90;2.53;;;11.40;99.90;;;;;;4971091;28;20114;-75
2021/05/05 03:11:55;;;;;;;2.60;2.40;;;11.40;99.90;;;;;;4971147;28;20562;-76
2021/05/05 03:14:25;;;;;;;3.53;2.20;;;11.40;99.90;;;;;;4948410;29;20196;-76
2021/05/05 03:16:52;;;;;;;3.03;2.50;;;11.40;99.90;;;;;;4951635;29;20067;-76
2021/05/05 03:19:17;;;;;;;3.28;2.67;;;11.50;99.90;;;;;;4952116;29;20083;-75
2021/05/05 03:21:43;;;;;;;4.55;2.40;;;11.50;99.90;;;;;;4959078;28;20075;-76
2021/05/05 03:24:10;;;;;;;2.88;2.20;;;11.50;99.90;;;;;;4961720;28;20099;-76
2021/05/05 03:26:35;;;;;;;3.15;2.83;;;11.40;99.90;;;;;;4970699;28;20736;-77
2021/05/05 03:29:01;;;;;;;4.63;2.38;;;11.40;99.90;;;;;;4974640;28;20079;-75
2021/05/05 03:31:27;;;;;;;2.50;2.30;;;11.40;99.90;;;;;;4957249;28;20076;-75
2021/05/05 03:33:53;;;;;;;4.40;2.45;;;11.40;99.90;;;;;;4964574;28;20509;-75
2021/05/05 03:36:18;;;;;;;3.22;2.67;;;11.50;99.90;;;;;;4963339;28;20080;-76
2021/05/05 03:38:44;;;;;;;2.55;2.35;;;11.40;99.90;;;;;;4966441;28;20606;-75
2021/05/05 03:41:09;;;;;;;3.28;2.97;;;11.40;99.90;;;;;;4963251;28;20567;-75
2021/05/05 03:43:35;;;;;;;3.60;2.42;;;11.40;99.90;;;;;;4955240;29;20146;-76
2021/05/05 03:46:00;;;;;;;3.33;3.03;;;11.40;99.90;;;;;;4963410;28;20092;-76
2021/05/05 03:48:26;;;;;;;3.00;2.70;;;11.30;99.90;;;;;;4972254;28;20134;-76
2021/05/05 03:50:53;;;;;;;4.50;2.97;;;11.30;99.90;;;;;;4957878;28;20084;-75
2021/05/05 03:53:19;;;;;;;4.32;2.95;;;11.30;99.90;;;;;;4965950;28;20078;-75
2021/05/05 03:55:45;;;;;;;3.58;2.30;;;11.30;99.90;;;;;;4955379;28;20100;-76
2021/05/05 03:58:11;;;;;;;4.72;3.40;;;11.30;99.90;;;;;;4953342;28;20075;-76
2021/05/05 04:00:37;;;;;;;3.25;2.80;;;11.40;99.90;;;;;;4960660;28;20167;-76
2021/05/05 04:03:02;;;;;;;3.67;2.63;;;11.30;99.90;;;;;;4956094;28;20080;-76
2021/05/05 04:05:28;;;;;;;5.20;2.95;;;11.40;99.90;;;;;;4947947;29;20096;-76
2021/05/05 04:07:53;;;;;;;3.05;2.75;;;11.30;99.90;;;;;;4937674;29;20175;-76
2021/05/05 04:10:19;;;;;;;3.67;2.35;;;11.30;99.90;;;;;;4956718;28;20075;-76
2021/05/05 04:12:44;;;;;;;3.70;2.65;;;11.30;99.90;;;;;;4947472;28;20080;-76
2021/05/05 04:15:10;;;;;;;2.90;2.58;;;11.30;99.90;;;;;;4960748;28;20106;-75
2021/05/05 04:17:36;;;;;;;6.05;2.67;;;11.30;99.90;;;;;;4966475;28;20079;-76
2021/05/05 04:20:02;;;;;;;2.83;2.30;;;11.30;99.90;;;;;;4967696;28;20075;-76
2021/05/05 04:22:28;;;;;;;3.95;2.55;;;11.30;99.90;;;;;;4967070;28;20705;-76
2021/05/05 04:24:54;;;;;;;2.95;2.53;;;11.30;99.90;;;;;;4966022;28;20190;-75
2021/05/05 04:27:20;;;;;;;3.17;2.55;;;11.30;99.90;;;;;;4961271;28;20072;-76
2021/05/05 04:29:46;;;;;;;3.97;2.78;;;11.20;99.90;;;;;;4955867;28;20739;-75
2021/05/05 04:32:13;;;;;;;2.97;2.63;;;11.10;99.90;;;;;;4968764;28;20072;-76
2021/05/05 04:34:41;;;;;;;3.97;2.80;;;11.10;99.90;;;;;;4959341;28;20099;-77
2021/05/05 04:37:06;;;;;;;3.35;2.70;;;11.10;99.90;;;;;;4961671;28;20074;-77
2021/05/05 04:39:33;;;;;;;4.00;2.78;;;11.00;99.90;;;;;;4977122;23;20115;-73
2021/05/05 04:41:59;;;;;;;4.50;2.50;;;11.00;99.90;;;;;;4956678;28;20162;-75
2021/05/05 04:44:24;;;;;;;3.60;2.60;;;11.00;99.90;;;;;;4953474;28;20170;-74
2021/05/05 04:46:50;;;;;;;3.35;2.97;;;11.00;99.90;;;;;;4954379;28;20083;-74
2021/05/05 04:49:16;;;;;;;2.28;1.88;;;11.00;99.90;;;;;;4953331;28;20580;-74
2021/05/05 04:51:41;;;;;;;2.58;1.35;;;10.50;99.90;;;;;;4952111;28;20090;-74
2021/05/05 04:54:07;;;;;;;0.85;0.70;;;9.90;99.90;;;;;;4966329;28;20102;-74
2021/05/05 04:56:34;;;;;;;0.73;0.40;;;9.60;99.90;;;;;;4957025;28;20076;-73
2021/05/05 04:59:00;;;;;;;0.85;0.50;;;9.20;99.90;;;;;;4970326;28;20166;-74
2021/05/05 05:01:26;;;;;;;1.15;0.50;;;9.00;99.90;;;;;;4966479;28;20592;-74
2021/05/05 05:03:52;;;;;;;0.75;0.50;;;8.80;99.90;;;;;;4965242;28;20162;-73
2021/05/05 05:06:17;;;;;;;2.00;0.82;;;8.60;99.90;;;;;;4950751;29;20151;-73
2021/05/05 05:08:43;;;;;;;1.48;0.80;;;8.50;99.90;;;;;;4960623;28;20157;-73
2021/05/05 05:11:08;;;;;;;0.70;0.70;;;8.50;99.90;;;;;;4950242;28;20531;-73
2021/05/05 05:13:34;;;;;;;2.47;0.65;;;8.30;99.90;;;;;;4968816;28;20130;-73
2021/05/05 05:16:00;;;;;;;1.95;0.98;;;8.30;99.90;;;;;;4971963;28;20082;-74
2021/05/05 05:18:25;;;;;;;1.73;0.75;;;8.20;99.90;;;;;;4970597;28;20091;-74
2021/05/05 05:20:51;;;;;;;0.82;0.70;;;8.10;99.90;;;;;;4957316;28;20099;-73
2021/05/05 05:23:17;;;;;;;1.40;0.85;;;8.00;99.90;;;;;;4953400;28;20072;-75
2021/05/05 05:25:43;;;;;;;1.02;0.60;;;8.00;99.90;;;;;;4954142;28;20160;-75
2021/05/05 05:28:08;;;;;;;2.42;0.90;;;8.00;99.90;;;;;;4956936;28;20110;-75
2021/05/05 05:30:34;;;;;;;3.05;1.10;;;7.90;99.90;;;;;;4947611;28;20187;-75
2021/05/05 05:33:00;;;;;;;3.92;1.85;;;7.80;99.90;;;;;;4950531;28;20089;-75
2021/05/05 05:35:26;;;;;;;6.05;2.20;;;7.80;99.90;;;;;;4969639;28;20275;-74
2021/05/05 05:37:52;;;;;;;5.63;2.17;;;7.80;99.90;;;;;;4971195;28;20068;-74
2021/05/05 05:40:18;;;;;;;4.38;1.00;;;7.80;99.90;;;;;;4969408;28;20190;-74
2021/05/05 05:42:44;;;;;;;2.67;0.98;;;7.60;99.90;;;;;;4953498;28;20551;-74
2021/05/05 05:45:11;;;;;;;1.30;0.85;;;7.60;99.90;;;;;;4951525;28;20103;-75
2021/05/05 05:47:37;;;;;;;1.95;0.75;;;7.60;99.90;;;;;;4949819;28;20083;-75
2021/05/05 05:50:03;;;;;;;1.95;0.90;;;7.50;99.90;;;;;;4963010;28;20792;-75
2021/05/05 05:52:29;;;;;;;1.58;0.70;;;7.40;99.90;;;;;;4955906;28;20552;-74
2021/05/05 05:54:54;;;;;;;2.13;0.90;;;7.40;99.90;;;;;;4970800;28;20131;-75
2021/05/05 05:57:20;;;;;;;3.75;0.90;;;7.30;99.90;;;;;;4951856;28;20170;-73
2021/05/05 05:59:45;;;;;;;3.28;0.90;;;7.40;99.90;;;;;;4966130;28;20106;-74
2021/05/05 06:02:11;;;;;;;1.77;0.60;;;7.40;99.90;;;;;;4957356;28;20086;-76
2021/05/05 06:04:37;;;;;;;1.27;0.90;;;7.30;99.90;;;;;;4961734;28;20094;-76
2021/05/05 06:07:02;;;;;;;0.82;0.63;;;7.40;99.90;;;;;;4952942;28;20506;-76
2021/05/05 06:09:28;;;;;;;3.70;0.65;;;7.30;99.90;;;;;;4951620;28;20554;-74
2021/05/05 06:11:54;;;;;;;1.13;0.55;;;7.40;99.90;;;;;;4968659;28;20087;-75
2021/05/05 06:14:19;;;;;;;0.60;0.47;;;7.40;99.90;;;;;;4954206;28;20544;-75
2021/05/05 06:16:45;;;;;;;1.15;0.65;;;7.40;99.90;;;;;;4950588;28;20170;-75
2021/05/05 06:19:10;;;;;;;2.90;0.80;;;7.40;99.90;;;;;;4951656;28;20142;-75
2021/05/05 06:21:36;;;;;;;0.38;0.30;;;7.30;99.90;;;;;;4968422;28;20090;-74
2021/05/05 06:24:02;;;;;;;0.80;0.22;;;7.10;99.90;;;;;;4963312;28;20126;-74
2021/05/05 06:26:28;;;;;;;0.63;0.25;;;7.10;99.90;;;;;;4968314;28;20158;-74
2021/05/05 06:28:53;;;;;;;0.63;0.30;;;7.10;99.90;;;;;;4956453;28;20095;-74
2021/05/05 06:31:19;;;;;;;1.23;0.45;;;7.10;99.90;;;;;;4971411;28;20142;-74
2021/05/05 06:33:44;;;;;;;0.20;0.20;;;6.90;99.90;;;;;;4954785;28;20117;-77
2021/05/05 06:36:10;;;;;;;0.50;0.35;;;6.90;99.90;;;;;;4939825;28;20130;-74
2021/05/05 06:38:35;;;;;;;0.77;0.60;;;6.80;99.90;;;;;;4965897;28;20183;-77
2021/05/05 06:41:01;;;;;;;1.45;0.57;;;6.80;99.90;;;;;;4959002;28;20075;-75
2021/05/05 06:43:27;;;;;;;1.25;0.60;;;6.80;99.90;;;;;;4963643;28;20087;-74
2021/05/05 06:45:53;;;;;;;2.08;0.65;;;6.70;99.90;;;;;;4966446;28;20159;-73
2021/05/05 06:48:18;;;;;;;1.13;0.70;;;6.80;99.90;;;;;;4949720;28;20107;-73
2021/05/05 06:50:45;;;;;;;2.70;0.93;;;6.70;99.90;;;;;;4950806;28;20093;-75
2021/05/05 06:53:11;;;;;;;3.55;1.00;;;6.70;99.90;;;;;;4969838;28;20083;-75
2021/05/05 06:55:37;;;;;;;1.63;0.70;;;6.80;99.90;;;;;;4952943;28;20142;-77
2021/05/05 06:58:04;;;;;;;2.85;0.73;;;6.70;99.90;;;;;;4972297;28;20559;-76
2021/05/05 07:00:30;;;;;;;1.80;0.98;;;6.70;99.90;;;;;;4973989;28;20086;-78
2021/05/05 07:02:55;;;;;;;1.05;0.45;;;6.50;99.90;;;;;;4970121;28;20083;-76
2021/05/05 07:05:21;;;;;;;2.75;0.38;;;6.40;99.90;;;;;;4970547;28;20083;-77
2021/05/05 07:07:46;;;;;;;1.95;0.50;;;6.30;99.90;;;;;;4973835;28;20082;-76
2021/05/05 07:10:13;;;;;;;0.93;0.50;;;6.50;99.90;;;;;;4957234;28;20578;-83
2021/05/05 07:12:39;;;;;;;2.55;0.70;;;6.40;99.90;;;;;;4955629;28;20090;-76
2021/05/05 07:15:05;;;;;;;1.10;0.28;;;6.30;99.90;;;;;;4963183;28;20087;-76
2021/05/05 07:17:31;;;;;;;1.60;1.00;;;6.40;99.90;;;;;;4956043;28;20105;-75
2021/05/05 07:19:56;;;;;;;0.95;0.70;;;6.50;99.90;;;;;;4973820;28;20538;-76
2021/05/05 07:22:22;;;;;;;4.25;0.70;;;6.50;99.90;;;;;;4962679;28;20090;-76
2021/05/05 07:24:48;;;;;;;0.93;0.50;;;6.50;99.90;;;;;;4959867;28;20111;-75
2021/05/05 07:27:15;;;;;;;1.13;0.30;;;6.40;99.90;;;;;;4962133;28;20597;-76
2021/05/05 07:29:40;;;;;;;1.30;0.57;;;6.50;99.90;;;;;;4959132;28;20096;-75
2021/05/05 07:32:06;;;;;;;2.75;0.55;;;6.80;99.90;;;;;;4966133;28;20098;-74
2021/05/05 07:34:32;;;;;;;1.67;0.77;;;6.90;99.90;;;;;;4972324;28;20095;-74
2021/05/05 07:37:06;;;;;;;1.75;0.47;;;7.00;99.90;;;;;;4969835;28;20594;-77
2021/05/05 07:47:50;;;;;;;0.50;0.30;;;7.20;99.90;;;;;;4972598;28;20086;-75
2021/05/05 07:50:12;;;;;;;3.38;0.60;;;7.30;99.90;;;;;;4973059;28;20087;-78
2021/05/05 07:52:39;;;;;;;1.45;0.30;;;7.30;99.90;;;;;;4968294;28;20147;-75
2021/05/05 07:55:06;;;;;;;1.33;0.85;;;7.20;99.90;;;;;;4964718;28;20083;-75
2021/05/05 07:57:32;;;;;;;2.72;1.02;;;7.30;99.90;;;;;;4971732;28;20079;-75
2021/05/05 07:59:57;;;;;;;1.50;1.00;;;7.20;99.90;;;;;;4972656;28;20452;-77
2021/05/05 08:02:23;;;;;;;2.15;0.40;;;7.00;99.90;;;;;;4970305;28;20084;-75
2021/05/05 08:04:49;;;;;;;0.52;0.32;;;7.30;99.90;;;;;;4953242;28;20585;-75
2021/05/05 08:07:19;;;;;;;0.93;0.75;;;7.40;99.90;;;;;;4968911;28;20617;-76
2021/05/05 08:09:45;;;;;;;1.13;0.75;;;7.50;99.90;;;;;;4954651;28;20095;-76
2021/05/05 08:12:12;;;;;;;1.15;0.50;;;7.50;99.90;;;;;;4961462;28;20115;-76
2021/05/05 08:14:39;;;;;;;0.80;0.50;;;7.30;99.90;;;;;;4962102;28;20099;-75
2021/05/05 08:17:05;;;;;;;0.85;0.52;;;7.60;99.90;;;;;;4965240;28;20084;-76
2021/05/05 08:19:31;;;;;;;1.60;0.60;;;7.70;99.90;;;;;;4954112;28;20515;-75
2021/05/05 08:21:56;;;;;;;2.05;0.88;;;7.70;99.90;;;;;;4953632;28;20088;-76
2021/05/05 08:24:22;;;;;;;1.05;0.47;;;7.80;99.90;;;;;;4958078;28;20422;-75
2021/05/05 08:26:47;;;;;;;1.38;0.32;;;7.90;99.90;;;;;;4967459;28;20094;-75
2021/05/05 08:29:13;;;;;;;0.40;0.20;;;7.50;99.90;;;;;;4954709;28;20837;-74
2021/05/05 08:31:38;;;;;;;0.43;0.28;;;7.40;99.90;;;;;;4959649;28;20145;-76
2021/05/05 08:34:04;;;;;;;0.30;0.28;;;7.50;99.90;;;;;;4961536;28;20096;-75
2021/05/05 08:36:31;;;;;;;2.95;0.50;;;7.50;99.90;;;;;;4961251;28;20495;-76
2021/05/05 08:38:57;;;;;;;0.90;0.68;;;7.50;99.90;;;;;;4955802;28;20111;-76
2021/05/05 08:41:23;;;;;;;1.55;1.00;;;7.40;99.90;;;;;;4955315;28;20592;-75
2021/05/05 08:43:50;;;;;;;1.05;0.70;;;7.60;99.90;;;;;;4952962;28;20170;-76
2021/05/05 08:46:17;;;;;;;3.00;0.80;;;7.60;99.90;;;;;;4942827;28;20179;-75
2021/05/05 08:48:44;;;;;;;1.23;0.63;;;7.50;99.90;;;;;;4960486;28;20448;-76
2021/05/05 08:51:11;;;;;;;2.08;0.80;;;7.60;99.90;;;;;;4952183;28;20084;-76
2021/05/05 08:53:40;;;;;;;2.70;0.80;;;7.80;99.90;;;;;;4957685;28;20083;-76
2021/05/05 08:56:05;;;;;;;1.40;0.80;;;7.90;99.90;;;;;;4948784;28;20137;-76
2021/05/05 08:58:31;;;;;;;0.95;0.80;;;7.70;99.90;;;;;;4966166;28;20095;-76
2021/05/05 09:00:56;;;;;;;0.60;0.50;;;7.90;99.90;;;;;;4956737;28;20150;-76
2021/05/05 09:03:40;;;;;;;0.60;0.38;;;7.90;99.90;;;;;;4954725;28;20088;-76
2021/05/05 09:06:06;;;;;;;0.60;0.50;;;7.80;99.90;;;;;;4950626;28;20074;-76
2021/05/05 09:08:33;;;;;;;1.90;1.10;;;7.70;99.90;;;;;;4957897;28;20100;-75
2021/05/05 09:11:05;;;;;;;1.17;0.85;;;7.60;99.90;;;;;;4951514;28;20084;-76
2021/05/05 09:13:53;;;;;;;2.60;0.75;;;7.70;99.90;;;;;;4936010;28;20459;-75
2021/05/05 09:16:20;;;;;;;1.10;1.00;;;7.60;99.90;;;;;;4954210;28;20079;-75
2021/05/05 09:19:10;;;;;;;0.82;0.63;;;7.70;99.90;;;;;;4971599;28;20503;-76
2021/05/05 09:21:42;;;;;;;3.10;0.70;;;7.70;99.90;;;;;;4943033;28;20079;-76
2021/05/05 09:24:20;;;;;;;1.35;0.70;;;7.80;99.90;;;;;;4955564;28;20076;-76
2021/05/05 09:26:49;;;;;;;2.03;1.52;;;7.80;99.90;;;;;;4954336;28;20453;-76
2021/05/05 09:29:16;;;;;;;2.42;1.00;;;7.70;99.90;;;;;;4933787;28;20448;-76
2021/05/05 09:31:43;;;;;;;0.90;0.80;;;7.70;99.90;;;;;;4951025;28;20103;-75
2021/05/05 09:34:12;;;;;;;1.08;0.80;;;7.90;99.90;;;;;;4953089;28;20456;-77
2021/05/05 09:36:55;;;;;;;0.65;0.52;;;7.90;99.90;;;;;;4963671;28;20075;-75
2021/05/05 09:39:27;;;;;;;0.60;0.60;;;7.90;99.90;;;;;;4959844;28;20095;-76
2021/05/05 09:41:52;;;;;;;1.52;0.65;;;8.00;99.90;;;;;;4967150;28;20162;-74
2021/05/05 09:44:18;;;;;;;0.77;0.50;;;8.00;99.90;;;;;;4960090;28;20641;-75
2021/05/05 09:46:46;;;;;;;2.13;1.08;;;8.00;99.90;;;;;;4951831;28;20091;-74
2021/05/05 09:49:32;;;;;;;0.50;0.40;;;8.10;99.90;;;;;;4951224;28;20095;-76
2021/05/05 09:52:06;;;;;;;1.27;0.60;;;8.10;99.90;;;;;;4952206;28;20095;-76
2021/05/05 09:54:52;;;;;;;1.50;0.60;;;8.20;99.90;;;;;;4970587;28;20156;-75
2021/05/05 09:57:25;;;;;;;1.38;0.75;;;8.20;99.90;;;;;;4952685;28;20074;-77
2021/05/05 10:00:08;;;;;;;1.75;1.00;;;8.30;99.90;;;;;;4962991;28;20847;-76
2021/05/05 10:02:44;;;;;;;1.30;0.80;;;8.50;99.90;;;;;;4943135;28;20083;-76
2021/05/05 10:05:27;;;;;;;0.85;0.70;;;8.60;99.90;;;;;;4968464;28;20138;-79
2021/05/05 10:07:56;;;;;;;1.00;0.68;;;8.70;99.90;;;;;;4964445;28;20122;-75
2021/05/05 10:10:38;;;;;;;2.38;1.90;;;8.70;99.90;;;;;;4970135;28;20130;-76
2021/05/05 10:13:06;;;;;;;1.27;0.65;;;8.80;99.90;;;;;;4959771;28;20071;-76
2021/05/05 10:15:33;;;;;;;2.03;1.08;;;8.70;99.90;;;;;;4968536;28;20178;-75
2021/05/05 10:18:00;;;;;;;1.33;0.77;;;8.70;99.90;;;;;;4954195;28;20087;-75
2021/05/05 10:20:28;;;;;;;1.38;0.50;;;8.50;99.90;;;;;;4969790;28;20072;-76
2021/05/05 10:22:56;;;;;;;1.67;0.60;;;8.30;99.90;;;;;;4958156;28;20072;-75
2021/05/05 10:25:22;;;;;;;4.07;1.63;;;8.40;99.90;;;;;;4951423;29;20064;-76
2021/05/05 10:27:49;;;;;;;2.25;0.68;;;8.60;99.90;;;;;;4947502;28;20087;-75
2021/05/05 10:30:17;;;;;;;1.05;1.00;;;8.70;99.90;;;;;;4940731;29;20123;-76
2021/05/05 10:32:45;;;;;;;0.50;0.50;;;8.80;99.90;;;;;;4956647;28;20130;-75
2021/05/05 10:35:15;;;;;;;2.97;1.10;;;8.80;99.90;;;;;;4951843;28;20094;-76
2021/05/05 10:37:43;;;;;;;1.48;1.10;;;8.90;99.90;;;;;;4958939;28;20079;-76
2021/05/05 10:40:20;;;;;;;2.05;1.08;;;9.00;99.90;;;;;;4970359;28;20154;-77
2021/05/05 10:42:58;;;;;;;2.22;1.50;;;8.90;99.90;;;;;;4951963;28;20086;-74
2021/05/05 10:45:42;;;;;;;1.00;0.50;;;8.80;99.90;;;;;;4960482;28;20158;-77
2021/05/05 10:48:13;;;;;;;1.92;1.60;;;8.80;99.90;;;;;;4954232;28;20095;-75
2021/05/05 10:50:48;;;;;;;2.47;1.20;;;8.80;99.90;;;;;;4950902;28;20090;-75
2021/05/05 10:53:14;;;;;;;5.95;3.90;;;8.70;99.90;;;;;;4936113;28;20085;-75
2021/05/05 10:55:42;;;;;;;3.03;1.23;;;8.70;99.90;;;;;;4949222;28;20104;-75
2021/05/05 10:58:14;;;;;;;2.45;0.70;;;8.70;99.90;;;;;;4958663;28;20174;-75
2021/05/05 11:00:57;;;;;;;1.50;0.75;;;8.70;99.90;;;;;;4954100;28;20084;-75
2021/05/05 11:03:41;;;;;;;2.03;0.93;;;8.80;99.90;;;;;;4956041;28;20138;-75
2021/05/05 11:06:29;;;;;;;1.90;0.70;;;8.80;99.90;;;;;;4952352;28;20099;-76
2021/05/05 11:08:55;;;;;;;2.90;1.00;;;8.80;99.90;;;;;;4965338;28;20730;-76
2021/05/05 11:11:37;;;;;;;0.75;0.70;;;8.70;99.90;;;;;;4958049;28;20103;-76
2021/05/05 11:14:03;;;;;;;1.63;0.90;;;8.60;99.90;;;;;;4951606;28;20207;-76
2021/05/05 11:16:55;;;;;;;0.90;0.70;;;8.50;99.90;;;;;;4954935;28;20242;-75
2021/05/05 11:19:43;;;;;;;1.50;0.50;;;8.20;99.90;;;;;;4956450;28;20162;-77
2021/05/05 11:22:33;;;;;;;3.03;1.58;;;7.60;99.90;;;;;;4947402;28;20360;-76
2021/05/05 11:25:16;;;;;;;7.32;1.08;;;7.40;99.90;;;;;;4951493;28;20083;-75
2021/05/05 11:27:48;;;;;;;2.85;1.92;;;7.20;99.90;;;;;;4941602;28;20431;-77
2021/05/05 11:30:34;;;;;;;2.80;1.02;;;7.20;99.90;;;;;;4948969;28;20075;-76
2021/05/05 11:32:59;;;;;;;4.35;1.08;;;7.00;99.90;;;;;;4958016;28;20495;-77
2021/05/05 11:35:27;;;;;;;3.45;0.80;;;7.00;99.90;;;;;;4951034;28;20234;-76
2021/05/05 11:38:07;;;;;;;1.20;0.80;;;7.10;99.90;;;;;;4952348;28;20072;-75
2021/05/05 11:40:32;;;;;;;2.05;1.10;;;7.00;99.90;;;;;;4964970;28;20558;-77
2021/05/05 11:42:58;;;;;;;3.92;1.27;;;7.20;99.90;;;;;;4932723;29;20202;-76
2021/05/05 11:45:24;;;;;;;3.20;1.10;;;7.40;99.90;;;;;;4955306;28;20123;-77
2021/05/05 11:47:49;;;;;;;2.75;1.08;;;7.50;99.90;;;;;;4938504;28;20095;-72
2021/05/05 11:50:21;;;;;;;5.75;2.15;;;7.70;99.90;;;;;;4952264;28;20499;-74
2021/05/05 11:52:47;;;;;;;2.97;1.10;;;7.90;99.90;;;;;;4962021;28;20082;-74
2021/05/05 11:55:13;;;;;;;1.77;1.27;;;8.00;99.90;;;;;;4953498;28;20098;-76
2021/05/05 11:57:40;;;;;;;2.95;0.98;;;8.10;99.90;;;;;;4954988;28;20159;-76
2021/05/05 12:00:10;;;;;;;1.90;1.17;;;8.10;99.90;;;;;;4953831;28;20079;-76
2021/05/05 12:02:52;;;;;;;3.33;1.50;;;8.20;99.90;;;;;;4959842;28;20126;-74
2021/05/05 12:05:22;;;;;;;6.28;1.50;;;8.30;99.90;;;;;;4968442;28;20083;-75
2021/05/05 12:08:09;;;;;;;5.20;2.08;;;8.40;99.90;;;;;;4962570;28;20080;-78
2021/05/05 12:10:37;;;;;;;4.38;1.20;;;8.40;99.90;;;;;;4955745;28;20121;-76
2021/05/05 12:13:10;;;;;;;2.38;0.82;;;8.30;99.90;;;;;;4973190;28;20074;-74
2021/05/05 12:15:40;;;;;;;1.92;0.93;;;8.30;99.90;;;;;;4970933;28;20102;-75
2021/05/05 12:18:21;;;;;;;2.42;1.08;;;8.20;99.90;;;;;;4970354;28;20094;-75
2021/05/05 12:20:48;;;;;;;1.83;0.95;;;8.20;99.90;;;;;;4969305;28;20090;-75
2021/05/05 12:23:14;;;;;;;3.60;1.55;;;8.00;99.90;;;;;;4954741;28;20071;-75
2021/05/05 12:25:40;;;;;;;3.05;1.30;;;8.00;99.90;;;;;;4966864;28;20087;-76
2021/05/05 12:28:17;;;;;;;2.92;1.02;;;8.10;99.90;;;;;;4967743;28;20182;-74
2021/05/05 12:30:55;;;;;;;2.53;1.00;;;8.20;99.90;;;;;;4972909;28;20498;-75
2021/05/05 12:33:29;;;;;;;4.47;1.20;;;8.30;99.90;;;;;;4970174;28;20078;-74
2021/05/05 12:35:55;;;;;;;2.53;0.95;;;8.80;99.90;;;;;;4954688;28;20094;-75
2021/05/05 12:38:22;;;;;;;5.22;1.55;;;9.10;99.90;;;;;;4962582;28;20146;-75
2021/05/05 12:40:48;;;;;;;3.00;1.38;;;9.30;99.90;;;;;;4971441;28;20083;-76
2021/05/05 12:43:21;;;;;;;2.38;1.30;;;9.40;99.90;;;;;;4954217;28;20075;-74
2021/05/05 12:45:48;;;;;;;2.70;1.60;;;9.40;99.90;;;;;;4963657;28;20083;-81
2021/05/05 12:48:30;;;;;;;2.70;1.27;;;9.30;99.90;;;;;;4967824;28;20103;-74
2021/05/05 12:51:14;;;;;;;3.38;1.80;;;9.20;99.90;;;;;;4964350;28;20129;-75
2021/05/05 12:53:59;;;;;;;3.60;1.20;;;9.30;99.90;;;;;;4952720;28;20115;-75
2021/05/05 12:56:37;;;;;;;5.60;2.35;;;9.60;99.90;;;;;;4954983;28;20083;-75
2021/05/05 12:59:03;;;;;;;2.90;1.50;;;9.80;99.90;;;;;;4965715;28;20149;-74
2021/05/05 13:01:29;;;;;;;3.30;1.17;;;9.80;99.90;;;;;;4964774;28;20082;-75
2021/05/05 13:03:55;;;;;;;2.17;0.93;;;10.00;99.90;;;;;;4952752;28;20103;-75
2021/05/05 13:06:20;;;;;;;6.05;1.83;;;9.80;99.90;;;;;;4952977;28;20079;-75